Time;durP1;ratioP1;P1;durP2;ratioP2;P2;SDS_P1;SDS_P2;PMS_P1;PMS_P2;Temp;Humidity;BMP_temperature;BMP_pressure;BME280_temperature;BME280_humidity;BME280_pressure;Samples;Min_cycle;Max_cycle;Signal;HPM_P1;HPM_P2
2022/06/20 00:00:05;;;;;;;3.83;1.38;;;;;;;;;;5127588;27;20047;-62
2022/06/20 00:02:31;;;;;;;4.65;1.00;;;;;;;;;;5125877;27;20038;-62
2022/06/20 00:05:00;;;;;;;4.78;1.10;;;;;;;;;;5108659;27;20617;-62
2022/06/20 00:07:27;;;;;;;3.67;1.10;;;;;;;;;;5126387;27;20046;-62
2022/06/20 00:09:53;;;;;;;3.72;1.10;;;;;;;;;;5127681;27;20517;-62
2022/06/20 00:12:22;;;;;;;4.82;1.30;;;;;;;;;;5127939;27;20802;-62
2022/06/20 00:14:51;;;;;;;3.33;1.00;;;;;;;;;;5127178;27;20250;-62
2022/06/20 00:17:17;;;;;;;3.22;1.00;;;;;;;;;;5128299;27;20038;-62
2022/06/20 00:19:45;;;;;;;3.42;0.90;;;;;;;;;;5126954;27;20210;-62
2022/06/20 00:22:11;;;;;;;3.10;0.90;;;;;;;;;;5127956;27;20032;-62
2022/06/20 00:24:38;;;;;;;2.60;0.82;;;;;;;;;;5125382;27;20456;-62
2022/06/20 00:27:08;;;;;;;2.72;0.82;;;;;;;;;;5126682;27;20039;-62
2022/06/20 00:29:36;;;;;;;3.75;1.10;;;;;;;;;;5127339;27;20116;-61
2022/06/20 00:32:03;;;;;;;2.60;0.85;;;;;;;;;;5124733;27;20039;-62
2022/06/20 00:34:30;;;;;;;2.63;0.90;;;;;;;;;;5127155;27;20043;-62
2022/06/20 00:36:57;;;;;;;4.35;1.05;;;;;;;;;;5125707;27;20056;-62
2022/06/20 00:39:23;;;;;;;3.60;0.80;;;;;;;;;;5126502;27;20882;-64
2022/06/20 00:41:51;;;;;;;3.50;0.90;;;;;;;;;;5128539;27;20117;-63
2022/06/20 00:44:21;;;;;;;5.57;1.00;;;;;;;;;;5125619;27;20481;-62
2022/06/20 00:46:54;;;;;;;3.55;0.70;;;;;;;;;;5124587;27;20038;-62
2022/06/20 00:49:20;;;;;;;;;;;;;;;;;;5126661;27;20167;-63
2022/06/20 00:51:53;;;;;;;2.15;0.75;;;;;;;;;;5126237;27;19916;-62
2022/06/20 00:54:23;;;;;;;2.55;0.98;;;;;;;;;;5126977;27;20077;-61
2022/06/20 00:57:07;;;;;;;2.85;1.00;;;;;;;;;;5116547;27;20039;-63
2022/06/20 00:59:45;;;;;;;2.55;0.77;;;;;;;;;;5125978;27;20043;-59
2022/06/20 01:02:12;;;;;;;2.17;0.70;;;;;;;;;;5126625;27;20152;-64
2022/06/20 01:04:45;;;;;;;3.75;1.23;;;;;;;;;;5107630;27;20042;-62
2022/06/20 01:07:19;;;;;;;2.75;0.93;;;;;;;;;;5125817;27;20801;-63
2022/06/20 01:09:47;;;;;;;4.25;0.80;;;;;;;;;;5125015;27;20133;-62
2022/06/20 01:12:16;;;;;;;2.75;0.80;;;;;;;;;;5126301;27;20031;-62
2022/06/20 01:14:42;;;;;;;1.88;0.65;;;;;;;;;;5124953;27;20042;-65
2022/06/20 01:17:19;;;;;;;3.75;0.80;;;;;;;;;;5124291;27;20039;-65
2022/06/20 01:19:48;;;;;;;4.80;0.93;;;;;;;;;;5111456;27;20506;-62
2022/06/20 01:22:24;;;;;;;8.35;1.00;;;;;;;;;;5126171;27;20070;-63
2022/06/20 01:25:07;;;;;;;3.60;1.00;;;;;;;;;;5125706;27;20107;-62
2022/06/20 01:27:40;;;;;;;6.30;0.85;;;;;;;;;;5123999;27;20136;-63
2022/06/20 01:30:07;;;;;;;2.78;1.00;;;;;;;;;;5127310;27;20051;-63
2022/06/20 01:32:33;;;;;;;2.95;1.15;;;;;;;;;;5123501;27;20027;-62
2022/06/20 01:35:02;;;;;;;3.35;1.10;;;;;;;;;;5124648;27;20039;-63
2022/06/20 01:37:29;;;;;;;4.30;1.17;;;;;;;;;;5124470;27;20372;-62
2022/06/20 01:39:59;;;;;;;2.97;1.05;;;;;;;;;;5125624;27;20087;-61
2022/06/20 01:42:27;;;;;;;2.80;1.00;;;;;;;;;;5125352;27;20149;-62
2022/06/20 01:44:54;;;;;;;17.20;1.33;;;;;;;;;;5124478;27;20043;-63
2022/06/20 01:47:21;;;;;;;2.78;0.98;;;;;;;;;;5124841;27;20035;-61
2022/06/20 01:49:49;;;;;;;3.38;1.15;;;;;;;;;;5106306;27;20047;-66
2022/06/20 01:52:16;;;;;;;4.95;1.20;;;;;;;;;;5125116;27;20039;-66
2022/06/20 01:54:45;;;;;;;4.47;1.13;;;;;;;;;;5124858;27;20046;-66
2022/06/20 01:57:12;;;;;;;5.60;1.20;;;;;;;;;;5124491;27;20046;-62
2022/06/20 01:59:45;;;;;;;4.00;1.20;;;;;;;;;;5125116;27;20762;-60
2022/06/20 02:02:11;;;;;;;;;;;;;;;;;;5108000;27;20144;-62
2022/06/20 02:04:39;;;;;;;2.58;1.00;;;;;;;;;;5124290;27;19967;-62
2022/06/20 02:07:07;;;;;;;3.00;0.90;;;;;;;;;;5123879;27;20039;-61
2022/06/20 02:09:34;;;;;;;3.28;1.05;;;;;;;;;;5125056;27;20508;-61
2022/06/20 02:12:02;;;;;;;2.70;1.25;;;;;;;;;;5125367;27;20043;-60
2022/06/20 02:14:35;;;;;;;2.83;0.93;;;;;;;;;;5123763;27;20080;-62
2022/06/20 02:17:04;;;;;;;3.00;1.10;;;;;;;;;;5123881;27;20063;-62
2022/06/20 02:19:36;;;;;;;4.65;1.08;;;;;;;;;;5122765;27;20050;-62
2022/06/20 02:22:05;;;;;;;3.55;1.27;;;;;;;;;;5125364;27;20721;-64
2022/06/20 02:24:42;;;;;;;3.17;1.10;;;;;;;;;;5123921;27;20046;-63
2022/06/20 02:27:12;;;;;;;3.78;1.40;;;;;;;;;;5124071;27;20115;-61
2022/06/20 02:29:39;;;;;;;3.53;1.27;;;;;;;;;;5123492;27;20047;-62
2022/06/20 02:32:06;;;;;;;6.22;1.58;;;;;;;;;;5125433;27;20027;-62
2022/06/20 02:34:33;;;;;;;2.85;1.23;;;;;;;;;;5123463;27;20039;-61
2022/06/20 02:37:02;;;;;;;4.70;1.20;;;;;;;;;;5124646;27;20047;-61
2022/06/20 02:39:30;;;;;;;6.30;1.30;;;;;;;;;;5123067;27;20049;-62
2022/06/20 02:42:00;;;;;;;4.47;1.50;;;;;;;;;;5123027;27;20388;-62
2022/06/20 02:44:28;;;;;;;4.53;1.23;;;;;;;;;;5123393;27;20056;-63
2022/06/20 02:46:55;;;;;;;6.22;1.55;;;;;;;;;;5126650;27;20038;-62
2022/06/20 02:49:24;;;;;;;3.88;1.30;;;;;;;;;;5127940;27;20053;-62
2022/06/20 02:51:52;;;;;;;4.45;1.23;;;;;;;;;;5128214;27;20590;-63
2022/06/20 02:54:21;;;;;;;4.10;1.77;;;;;;;;;;5126982;27;20160;-62
2022/06/20 02:56:53;;;;;;;3.85;1.33;;;;;;;;;;5123802;27;20035;-67
2022/06/20 02:59:25;;;;;;;3.30;1.30;;;;;;;;;;5125132;27;20043;-62
2022/06/20 03:02:01;;;;;;;3.30;1.30;;;;;;;;;;5124886;27;20064;-62
2022/06/20 03:04:28;;;;;;;3.17;1.35;;;;;;;;;;5124424;27;20148;-62
2022/06/20 03:07:00;;;;;;;5.32;1.38;;;;;;;;;;5105371;27;20043;-61
2022/06/20 03:09:33;;;;;;;4.03;1.42;;;;;;;;;;5124547;27;20065;-62
2022/06/20 03:12:02;;;;;;;3.00;1.20;;;;;;;;;;5125651;27;20482;-61
2022/06/20 03:14:31;;;;;;;5.07;1.55;;;;;;;;;;5124051;27;20117;-62
2022/06/20 03:16:58;;;;;;;3.40;1.45;;;;;;;;;;5124611;27;20467;-64
2022/06/20 03:19:27;;;;;;;7.60;1.50;;;;;;;;;;5124931;27;20124;-63
2022/06/20 03:21:58;;;;;;;3.35;1.27;;;;;;;;;;5125528;27;20486;-63
2022/06/20 03:24:25;;;;;;;6.47;1.20;;;;;;;;;;5124225;27;20039;-62
2022/06/20 03:26:52;;;;;;;3.08;1.10;;;;;;;;;;5122324;27;20053;-63
2022/06/20 03:29:20;;;;;;;4.53;1.55;;;;;;;;;;5106040;27;20126;-61
2022/06/20 03:31:47;;;;;;;3.50;1.40;;;;;;;;;;5122938;27;20612;-62
2022/06/20 03:34:14;;;;;;;4.32;1.33;;;;;;;;;;5123244;27;21643;-61
2022/06/20 03:36:47;;;;;;;3.33;1.20;;;;;;;;;;5123795;27;21784;-61
2022/06/20 03:39:15;;;;;;;3.58;1.23;;;;;;;;;;5126425;27;20039;-63
2022/06/20 03:41:42;;;;;;;5.28;1.90;;;;;;;;;;5122833;27;20062;-62
2022/06/20 03:44:18;;;;;;;4.82;1.30;;;;;;;;;;5123293;27;20555;-62
2022/06/20 03:46:58;;;;;;;6.50;1.23;;;;;;;;;;5121671;27;20080;-63
2022/06/20 03:49:27;;;;;;;3.35;1.23;;;;;;;;;;5121915;27;20103;-64
2022/06/20 03:51:56;;;;;;;3.40;1.33;;;;;;;;;;5125350;27;20034;-62
2022/06/20 03:54:27;;;;;;;3.25;1.38;;;;;;;;;;5104241;27;20042;-64
2022/06/20 03:56:53;;;;;;;3.70;1.30;;;;;;;;;;5124997;27;20721;-62
2022/06/20 03:59:25;;;;;;;3.38;1.25;;;;;;;;;;5124575;27;20047;-63
2022/06/20 04:01:58;;;;;;;3.65;1.50;;;;;;;;;;5106104;27;20043;-63
2022/06/20 04:04:28;;;;;;;5.03;1.40;;;;;;;;;;5121613;27;20040;-63
2022/06/20 04:07:00;;;;;;;4.20;1.20;;;;;;;;;;5123494;27;20089;-62
2022/06/20 04:12:27;;;;;;;6.75;1.30;;;;;;;;;;5123584;27;20146;-63
2022/06/20 04:14:57;;;;;;;3.08;1.00;;;;;;;;;;5122943;27;20524;-62
2022/06/20 04:20:28;;;;;;;3.50;1.40;;;;;;;;;;5123332;27;20536;-63
2022/06/20 04:22:55;;;;;;;3.38;1.20;;;;;;;;;;5123573;27;20160;-63
2022/06/20 04:25:27;;;;;;;3.13;1.27;;;;;;;;;;5122840;27;20039;-63
2022/06/20 04:28:17;;;;;;;2.80;1.10;;;;;;;;;;5123194;27;20031;-63
2022/06/20 04:31:04;;;;;;;6.95;1.35;;;;;;;;;;5122190;27;20523;-63
2022/06/20 04:33:35;;;;;;;3.05;1.10;;;;;;;;;;5071509;27;20130;-63
2022/06/20 04:36:06;;;;;;;4.28;1.20;;;;;;;;;;5105787;27;20039;-63
2022/06/20 04:38:38;;;;;;;3.58;1.40;;;;;;;;;;5126213;27;20328;-63
2022/06/20 04:41:13;;;;;;;3.40;1.30;;;;;;;;;;5127552;27;20047;-63
2022/06/20 04:44:01;;;;;;;3.53;1.42;;;;;;;;;;5127341;27;20118;-63
2022/06/20 04:46:34;;;;;;;3.78;1.02;;;;;;;;;;5124954;27;20137;-63
2022/06/20 04:49:00;;;;;;;3.53;1.13;;;;;;;;;;5125517;27;20058;-63
2022/06/20 04:51:33;;;;;;;3.10;1.17;;;;;;;;;;5127102;27;20049;-63
2022/06/20 04:54:01;;;;;;;4.75;1.20;;;;;;;;;;5127924;27;20920;-62
2022/06/20 04:56:27;;;;;;;3.53;1.23;;;;;;;;;;5125516;27;20027;-62
2022/06/20 04:59:00;;;;;;;3.03;1.15;;;;;;;;;;5126566;27;20074;-62
2022/06/20 05:01:30;;;;;;;2.90;1.10;;;;;;;;;;5126376;27;20050;-62
2022/06/20 05:04:01;;;;;;;4.03;1.42;;;;;;;;;;5128771;27;20054;-62
2022/06/20 05:06:32;;;;;;;3.72;1.10;;;;;;;;;;5125854;27;20051;-62
2022/06/20 05:09:10;;;;;;;3.20;1.05;;;;;;;;;;5128160;27;20042;-63
2022/06/20 05:11:40;;;;;;;3.55;1.50;;;;;;;;;;5125821;27;20043;-62
2022/06/20 05:14:15;;;;;;;2.95;1.20;;;;;;;;;;5129857;27;20375;-63
2022/06/20 05:16:52;;;;;;;4.25;1.38;;;;;;;;;;5126882;27;21833;-63
2022/06/20 05:19:22;;;;;;;4.35;1.08;;;;;;;;;;5109377;27;20082;-63
2022/06/20 05:21:51;;;;;;;3.97;1.33;;;;;;;;;;5126878;27;20035;-63
2022/06/20 05:24:20;;;;;;;3.78;1.02;;;;;;;;;;5128766;27;20031;-63
2022/06/20 05:26:48;;;;;;;2.83;1.10;;;;;;;;;;5125714;27;20069;-63
2022/06/20 05:29:17;;;;;;;2.88;0.98;;;;;;;;;;5128348;27;20072;-63
2022/06/20 05:31:46;;;;;;;3.38;1.38;;;;;;;;;;5127105;27;20056;-63
2022/06/20 05:34:22;;;;;;;2.83;1.10;;;;;;;;;;5126449;27;20129;-63
2022/06/20 05:37:11;;;;;;;2.92;1.00;;;;;;;;;;5126289;27;21770;-63
2022/06/20 05:39:52;;;;;;;3.30;1.08;;;;;;;;;;5127170;27;20055;-63
2022/06/20 05:42:19;;;;;;;4.40;1.40;;;;;;;;;;5128969;27;20483;-63
2022/06/20 05:44:46;;;;;;;2.72;1.08;;;;;;;;;;5126638;27;20045;-62
2022/06/20 05:47:27;;;;;;;3.25;1.02;;;;;;;;;;5126206;27;20043;-63
2022/06/20 05:50:07;;;;;;;2.88;1.10;;;;;;;;;;5128241;27;20464;-67
2022/06/20 05:52:34;;;;;;;3.78;1.20;;;;;;;;;;5127296;27;20120;-62
2022/06/20 05:55:04;;;;;;;3.20;1.10;;;;;;;;;;5126613;27;20046;-64
2022/06/20 05:57:32;;;;;;;4.32;1.13;;;;;;;;;;5126633;27;20035;-62
2022/06/20 06:00:00;;;;;;;3.60;0.95;;;;;;;;;;5129006;27;20110;-62
2022/06/20 06:02:29;;;;;;;2.42;0.80;;;;;;;;;;5126352;27;20088;-62
2022/06/20 06:04:56;;;;;;;3.00;1.20;;;;;;;;;;5125688;27;20049;-62
2022/06/20 06:07:27;;;;;;;2.60;1.00;;;;;;;;;;5126368;27;20134;-62
2022/06/20 06:09:54;;;;;;;3.35;1.30;;;;;;;;;;5126901;27;20055;-62
2022/06/20 06:12:28;;;;;;;3.25;1.10;;;;;;;;;;5127028;27;20501;-62
2022/06/20 06:14:57;;;;;;;4.10;0.80;;;;;;;;;;5125978;27;20390;-62
2022/06/20 06:17:28;;;;;;;2.65;0.90;;;;;;;;;;5108885;27;20062;-62
2022/06/20 06:19:57;;;;;;;2.92;1.17;;;;;;;;;;5126006;27;20092;-62
2022/06/20 06:22:29;;;;;;;3.90;0.98;;;;;;;;;;5125441;27;20031;-62
2022/06/20 06:25:04;;;;;;;2.88;1.02;;;;;;;;;;5124540;27;20039;-62
2022/06/20 06:27:33;;;;;;;2.80;1.00;;;;;;;;;;5125839;27;20078;-62
2022/06/20 06:30:00;;;;;;;3.25;1.00;;;;;;;;;;5125597;27;20093;-62
2022/06/20 06:32:53;;;;;;;3.53;0.80;;;;;;;;;;5126090;27;20126;-62
2022/06/20 06:35:22;;;;;;;4.63;0.80;;;;;;;;;;5122328;27;20046;-62
2022/06/20 06:37:52;;;;;;;4.03;1.00;;;;;;;;;;5125115;27;20043;-62
2022/06/20 06:40:42;;;;;;;2.97;0.90;;;;;;;;;;5125619;27;20043;-62
2022/06/20 06:43:20;;;;;;;7.10;1.10;;;;;;;;;;5115916;27;20838;-62
2022/06/20 06:45:47;;;;;;;2.85;0.90;;;;;;;;;;5124597;27;20043;-62
2022/06/20 06:48:25;;;;;;;3.28;0.90;;;;;;;;;;5125884;27;20038;-62
2022/06/20 06:50:55;;;;;;;2.72;0.80;;;;;;;;;;5123826;27;20067;-62
2022/06/20 06:53:32;;;;;;;3.63;0.95;;;;;;;;;;5124674;27;20034;-62
2022/06/20 06:56:01;;;;;;;2.45;0.80;;;;;;;;;;5124017;27;20102;-62
2022/06/20 06:58:33;;;;;;;1.95;0.60;;;;;;;;;;5124045;27;20042;-63
2022/06/20 07:01:03;;;;;;;8.13;0.82;;;;;;;;;;5124775;27;20719;-62
2022/06/20 07:03:32;;;;;;;3.28;0.80;;;;;;;;;;5123446;27;20128;-63
2022/06/20 07:06:02;;;;;;;2.28;0.70;;;;;;;;;;5124401;27;20118;-63
2022/06/20 07:08:41;;;;;;;2.00;0.70;;;;;;;;;;5124992;27;20034;-62
2022/06/20 07:11:12;;;;;;;1.95;0.70;;;;;;;;;;5125442;27;20064;-63
2022/06/20 07:13:44;;;;;;;1.40;0.55;;;;;;;;;;5124709;27;20058;-62
2022/06/20 07:16:23;;;;;;;3.07;0.70;;;;;;;;;;5125148;27;20423;-62
2022/06/20 07:18:51;;;;;;;1.58;0.60;;;;;;;;;;5126395;27;20313;-62
2022/06/20 07:21:19;;;;;;;2.67;0.57;;;;;;;;;;5125458;27;20139;-62
2022/06/20 07:23:48;;;;;;;4.03;0.60;;;;;;;;;;5124683;27;20606;-63
2022/06/20 07:26:16;;;;;;;1.63;0.50;;;;;;;;;;5125374;27;20058;-62
2022/06/20 07:29:09;;;;;;;1.55;0.50;;;;;;;;;;5126901;27;20058;-62
2022/06/20 07:31:43;;;;;;;3.40;0.70;;;;;;;;;;5122425;27;20047;-62
2022/06/20 07:34:15;;;;;;;2.70;0.70;;;;;;;;;;5107061;27;21699;-62
2022/06/20 07:36:44;;;;;;;1.83;0.60;;;;;;;;;;5123356;27;20039;-62
2022/06/20 07:39:21;;;;;;;1.63;0.55;;;;;;;;;;5127228;27;20039;-62
2022/06/20 07:41:51;;;;;;;1.45;0.50;;;;;;;;;;5124254;27;20038;-63
2022/06/20 07:44:31;;;;;;;2.00;0.52;;;;;;;;;;5125015;27;20059;-63
2022/06/20 07:46:58;;;;;;;6.03;0.80;;;;;;;;;;5126110;27;20089;-62
2022/06/20 07:49:30;;;;;;;2.45;0.70;;;;;;;;;;5122729;27;20116;-63
2022/06/20 07:52:00;;;;;;;1.70;0.60;;;;;;;;;;5124604;27;20070;-62
2022/06/20 07:54:29;;;;;;;2.05;0.63;;;;;;;;;;5126497;27;20088;-62
2022/06/20 07:56:59;;;;;;;3.42;0.57;;;;;;;;;;5126713;27;20290;-62
2022/06/20 07:59:44;;;;;;;1.85;0.60;;;;;;;;;;5125757;27;20043;-62
2022/06/20 08:02:20;;;;;;;1.75;0.60;;;;;;;;;;5125092;27;20080;-61
2022/06/20 08:04:48;;;;;;;2.20;0.60;;;;;;;;;;5101697;27;20035;-62
2022/06/20 08:07:29;;;;;;;2.15;0.70;;;;;;;;;;5105212;27;20038;-62
2022/06/20 08:10:01;;;;;;;1.60;0.52;;;;;;;;;;5117471;27;20111;-62
2022/06/20 08:12:37;;;;;;;2.20;0.63;;;;;;;;;;5127561;27;20082;-62
2022/06/20 08:15:11;;;;;;;1.85;0.60;;;;;;;;;;5127315;27;20075;-62
2022/06/20 08:17:38;;;;;;;1.40;0.50;;;;;;;;;;5127055;27;20585;-62
2022/06/20 08:20:05;;;;;;;1.33;0.50;;;;;;;;;;5109203;27;20056;-62
2022/06/20 08:22:35;;;;;;;2.08;0.60;;;;;;;;;;5125817;27;20046;-62
2022/06/20 08:25:07;;;;;;;1.48;0.50;;;;;;;;;;5127380;27;20129;-62
2022/06/20 08:27:39;;;;;;;1.23;0.50;;;;;;;;;;5126245;27;20505;-62
2022/06/20 08:30:09;;;;;;;2.13;0.55;;;;;;;;;;5128941;27;20571;-62
2022/06/20 08:32:49;;;;;;;1.70;0.50;;;;;;;;;;5127958;27;20035;-62
2022/06/20 08:35:20;;;;;;;1.48;0.40;;;;;;;;;;5126890;27;20515;-63
2022/06/20 08:37:50;;;;;;;4.70;0.70;;;;;;;;;;5126014;27;20145;-62
2022/06/20 08:40:23;;;;;;;0.73;0.47;;;;;;;;;;5126545;27;20068;-62
2022/06/20 08:43:01;;;;;;;1.80;0.60;;;;;;;;;;5116747;27;20059;-62
2022/06/20 08:45:43;;;;;;;2.00;0.50;;;;;;;;;;5105761;27;20287;-63
2022/06/20 08:48:28;;;;;;;1.55;0.50;;;;;;;;;;5106442;27;20031;-62
2022/06/20 08:50:54;;;;;;;1.27;0.40;;;;;;;;;;5113354;27;20042;-62
2022/06/20 08:53:44;;;;;;;1.52;0.50;;;;;;;;;;5107922;27;20129;-61
2022/06/20 08:56:29;;;;;;;1.73;0.50;;;;;;;;;;5099881;27;20880;-62
2022/06/20 08:59:14;;;;;;;2.35;0.63;;;;;;;;;;5105591;27;20439;-62
2022/06/20 09:02:04;;;;;;;3.63;0.60;;;;;;;;;;5105888;27;20043;-62
2022/06/20 09:04:31;;;;;;;1.67;0.40;;;;;;;;;;5104042;27;20626;-62
2022/06/20 09:06:58;;;;;;;2.13;0.70;;;;;;;;;;5106462;27;20050;-61
2022/06/20 09:09:24;;;;;;;1.27;0.40;;;;;;;;;;5106228;27;20063;-62
2022/06/20 09:12:09;;;;;;;2.00;0.57;;;;;;;;;;5107587;27;20042;-61
2022/06/20 09:14:42;;;;;;;1.23;0.47;;;;;;;;;;5102965;27;20142;-62
2022/06/20 09:17:21;;;;;;;1.80;0.50;;;;;;;;;;5107253;27;20035;-62
2022/06/20 09:19:54;;;;;;;1.85;0.60;;;;;;;;;;5104287;27;20040;-62
2022/06/20 09:22:30;;;;;;;2.70;0.50;;;;;;;;;;5106887;27;20063;-62
2022/06/20 09:25:08;;;;;;;1.55;0.47;;;;;;;;;;5118970;27;20067;-62
2022/06/20 09:27:46;;;;;;;1.77;0.50;;;;;;;;;;5126626;27;20103;-62
2022/06/20 09:30:23;;;;;;;1.25;0.50;;;;;;;;;;5127237;27;20063;-62
2022/06/20 09:33:08;;;;;;;1.55;0.50;;;;;;;;;;5125527;27;20066;-61
2022/06/20 09:35:41;;;;;;;1.52;0.50;;;;;;;;;;5123753;27;20864;-61
2022/06/20 09:38:07;;;;;;;1.75;0.50;;;;;;;;;;5126828;27;20030;-62
2022/06/20 09:40:44;;;;;;;1.58;0.50;;;;;;;;;;5125055;27;20530;-61
2022/06/20 09:43:29;;;;;;;1.13;0.40;;;;;;;;;;5127474;27;20066;-63
2022/06/20 09:45:59;;;;;;;1.00;0.40;;;;;;;;;;5126568;27;20114;-61
2022/06/20 09:48:31;;;;;;;2.15;0.50;;;;;;;;;;5126306;27;20073;-61
2022/06/20 09:51:10;;;;;;;3.63;0.50;;;;;;;;;;5105652;27;21927;-62
2022/06/20 09:53:46;;;;;;;1.38;0.50;;;;;;;;;;5126526;27;20122;-61
2022/06/20 09:56:19;;;;;;;1.70;0.47;;;;;;;;;;5127015;27;20030;-62
2022/06/20 09:58:55;;;;;;;2.00;0.52;;;;;;;;;;5124629;27;20035;-62
2022/06/20 10:01:31;;;;;;;4.43;0.60;;;;;;;;;;5125622;27;20072;-61
2022/06/20 10:04:17;;;;;;;1.45;0.50;;;;;;;;;;5126570;27;20053;-62
2022/06/20 10:07:02;;;;;;;0.95;0.45;;;;;;;;;;5126384;27;20042;-62
2022/06/20 10:09:46;;;;;;;1.23;0.50;;;;;;;;;;5126065;27;20059;-62
2022/06/20 10:12:13;;;;;;;2.15;0.40;;;;;;;;;;5127965;27;20062;-62
2022/06/20 10:15:00;;;;;;;1.70;0.50;;;;;;;;;;5125408;27;20038;-62
2022/06/20 10:17:32;;;;;;;0.82;0.45;;;;;;;;;;5128207;27;20103;-61
2022/06/20 10:20:07;;;;;;;2.63;0.60;;;;;;;;;;5127063;27;20099;-62
2022/06/20 10:22:37;;;;;;;2.03;0.30;;;;;;;;;;5127286;27;20156;-62
2022/06/20 10:25:07;;;;;;;1.40;0.40;;;;;;;;;;5125976;27;20098;-62
2022/06/20 10:27:34;;;;;;;0.98;0.40;;;;;;;;;;5126669;27;20065;-62
2022/06/20 10:30:06;;;;;;;1.77;0.50;;;;;;;;;;5125628;27;20497;-62
2022/06/20 10:32:33;;;;;;;0.75;0.40;;;;;;;;;;5125359;27;20134;-62
2022/06/20 10:35:08;;;;;;;1.10;0.40;;;;;;;;;;5122165;27;20576;-62
2022/06/20 10:37:47;;;;;;;1.10;0.40;;;;;;;;;;5123693;27;20037;-62
2022/06/20 10:40:18;;;;;;;3.67;0.43;;;;;;;;;;5124555;27;20500;-62
2022/06/20 10:42:45;;;;;;;1.45;0.47;;;;;;;;;;5124685;27;20131;-62
2022/06/20 10:45:19;;;;;;;3.00;0.40;;;;;;;;;;5124508;27;20538;-62
2022/06/20 10:47:53;;;;;;;1.35;0.50;;;;;;;;;;5123571;27;20063;-62
2022/06/20 10:50:32;;;;;;;1.42;0.47;;;;;;;;;;5124879;27;20609;-62
2022/06/20 10:53:37;;;;;;;0.98;0.40;;;;;;;;;;5125252;27;20045;-62
2022/06/20 10:56:11;;;;;;;1.25;0.50;;;;;;;;;;4996375;28;20073;-62
2022/06/20 10:59:06;;;;;;;1.70;0.57;;;;;;;;;;5011339;28;20125;-62
2022/06/20 11:01:40;;;;;;;1.13;0.40;;;;;;;;;;5080466;27;20557;-62
2022/06/20 11:04:15;;;;;;;1.42;0.50;;;;;;;;;;5124550;27;20030;-62
2022/06/20 11:06:53;;;;;;;1.38;0.50;;;;;;;;;;5124363;27;20801;-61
2022/06/20 11:09:35;;;;;;;0.75;0.40;;;;;;;;;;5125230;27;20047;-62
2022/06/20 11:12:06;;;;;;;2.95;0.57;;;;;;;;;;5125350;27;20054;-62
2022/06/20 11:14:51;;;;;;;2.72;0.63;;;;;;;;;;5122490;27;20042;-62
2022/06/20 11:17:36;;;;;;;1.25;0.40;;;;;;;;;;5125554;27;20045;-62
2022/06/20 11:20:14;;;;;;;2.75;0.57;;;;;;;;;;5124631;27;20043;-62
2022/06/20 11:22:43;;;;;;;1.58;0.50;;;;;;;;;;5122686;27;20126;-62
2022/06/20 11:25:18;;;;;;;0.90;0.40;;;;;;;;;;5125902;27;20168;-62
2022/06/20 11:28:00;;;;;;;0.77;0.40;;;;;;;;;;5123092;27;20604;-62
2022/06/20 11:30:32;;;;;;;1.35;0.40;;;;;;;;;;5124393;27;20043;-62
2022/06/20 11:33:02;;;;;;;1.67;0.50;;;;;;;;;;5124786;27;20031;-61
2022/06/20 11:35:49;;;;;;;1.05;0.40;;;;;;;;;;5123466;27;20041;-62
2022/06/20 11:38:28;;;;;;;1.67;0.50;;;;;;;;;;5123691;27;20043;-61
2022/06/20 11:41:11;;;;;;;1.42;0.50;;;;;;;;;;5124346;27;20039;-62
2022/06/20 11:43:44;;;;;;;1.05;0.40;;;;;;;;;;5123122;27;20072;-62
2022/06/20 11:46:15;;;;;;;2.15;0.50;;;;;;;;;;5126653;27;20046;-62
2022/06/20 11:48:44;;;;;;;1.98;0.57;;;;;;;;;;5127367;27;20042;-62
2022/06/20 11:51:11;;;;;;;0.98;0.40;;;;;;;;;;5128397;27;20050;-63
2022/06/20 11:53:44;;;;;;;1.13;0.50;;;;;;;;;;5127673;27;20476;-62
2022/06/20 11:56:19;;;;;;;1.95;0.57;;;;;;;;;;5127110;27;20042;-64
2022/06/20 11:59:04;;;;;;;1.63;0.52;;;;;;;;;;5117112;27;20050;-63
2022/06/20 12:01:41;;;;;;;1.88;0.50;;;;;;;;;;5128218;27;20039;-65
2022/06/20 12:04:17;;;;;;;5.30;1.35;;;;;;;;;;5129313;27;20142;-60
2022/06/20 12:06:50;;;;;;;2.20;0.47;;;;;;;;;;5126729;27;20157;-65
2022/06/20 12:09:36;;;;;;;1.73;0.50;;;;;;;;;;5130528;27;20057;-64
2022/06/20 12:12:15;;;;;;;1.92;0.60;;;;;;;;;;5085724;27;20081;-66
2022/06/20 12:14:59;;;;;;;1.92;0.52;;;;;;;;;;5129872;27;20047;-65
2022/06/20 12:17:39;;;;;;;10.13;0.65;;;;;;;;;;5109697;27;20043;-65
2022/06/20 12:23:20;;;;;;;2.83;0.70;;;;;;;;;;5122830;27;20053;-65
2022/06/20 12:25:58;;;;;;;2.40;0.60;;;;;;;;;;5114454;27;20038;-62
2022/06/20 12:28:33;;;;;;;1.13;0.40;;;;;;;;;;5108428;27;20058;-63
2022/06/20 12:31:06;;;;;;;3.00;0.60;;;;;;;;;;5128017;27;20051;-61
2022/06/20 12:33:33;;;;;;;1.38;0.50;;;;;;;;;;5125624;27;20074;-63
2022/06/20 12:36:02;;;;;;;1.95;0.55;;;;;;;;;;5129212;27;20115;-62
2022/06/20 12:38:50;;;;;;;2.03;0.63;;;;;;;;;;5106423;27;20038;-62
2022/06/20 12:41:19;;;;;;;2.10;0.60;;;;;;;;;;5116782;27;20383;-62
2022/06/20 12:43:54;;;;;;;1.67;0.60;;;;;;;;;;5126350;27;20077;-66
2022/06/20 12:46:33;;;;;;;3.03;0.60;;;;;;;;;;5126029;27;20054;-64
2022/06/20 12:49:10;;;;;;;2.03;0.60;;;;;;;;;;5126264;27;20039;-63
2022/06/20 12:51:55;;;;;;;3.63;0.80;;;;;;;;;;5124964;27;20126;-63
2022/06/20 12:54:31;;;;;;;2.20;0.60;;;;;;;;;;5126278;27;20091;-63
2022/06/20 12:56:58;;;;;;;2.50;0.73;;;;;;;;;;5125458;27;20555;-63
2022/06/20 12:59:42;;;;;;;2.08;0.65;;;;;;;;;;5125967;27;20037;-62
2022/06/20 13:02:28;;;;;;;2.63;0.70;;;;;;;;;;5127395;27;20061;-62
2022/06/20 13:05:12;;;;;;;2.08;0.65;;;;;;;;;;5115067;27;20045;-62
2022/06/20 13:07:48;;;;;;;1.80;0.60;;;;;;;;;;5107738;27;20035;-62
2022/06/20 13:10:38;;;;;;;1.92;0.60;;;;;;;;;;5103130;27;20101;-62
2022/06/20 13:13:05;;;;;;;1.67;0.50;;;;;;;;;;5099945;27;20509;-62
2022/06/20 13:15:37;;;;;;;1.23;0.52;;;;;;;;;;5106755;27;20065;-62
2022/06/20 13:18:13;;;;;;;3.65;0.70;;;;;;;;;;5109377;27;20039;-62
2022/06/20 13:20:56;;;;;;;3.63;0.70;;;;;;;;;;5107764;27;20039;-63
2022/06/20 13:23:29;;;;;;;2.85;0.70;;;;;;;;;;5107741;27;20038;-63
2022/06/20 13:25:58;;;;;;;2.70;0.70;;;;;;;;;;5107098;27;20041;-63
2022/06/20 13:28:25;;;;;;;1.98;0.60;;;;;;;;;;5104320;27;20059;-62
2022/06/20 13:31:10;;;;;;;1.83;0.60;;;;;;;;;;5106184;27;20449;-62
2022/06/20 13:33:37;;;;;;;4.40;0.90;;;;;;;;;;5107814;27;20039;-63
2022/06/20 13:36:04;;;;;;;2.38;0.65;;;;;;;;;;5106101;27;20122;-63
2022/06/20 13:38:36;;;;;;;3.22;1.00;;;;;;;;;;5105918;27;20227;-63
2022/06/20 13:41:15;;;;;;;2.53;0.88;;;;;;;;;;5106597;27;20050;-63
2022/06/20 13:43:42;;;;;;;3.75;0.73;;;;;;;;;;5108139;27;20058;-63
2022/06/20 13:46:16;;;;;;;2.08;0.60;;;;;;;;;;5106984;27;20035;-62
2022/06/20 13:48:48;;;;;;;4.80;0.80;;;;;;;;;;5105558;27;20385;-61
2022/06/20 13:51:28;;;;;;;3.85;0.75;;;;;;;;;;5114854;27;20130;-63
2022/06/20 13:53:58;;;;;;;1.63;0.60;;;;;;;;;;5118014;27;20123;-62
2022/06/20 13:56:35;;;;;;;2.38;0.80;;;;;;;;;;5108217;27;20032;-62
2022/06/20 13:59:02;;;;;;;2.67;0.80;;;;;;;;;;5107947;27;20063;-63
2022/06/20 14:01:40;;;;;;;3.53;0.90;;;;;;;;;;5094484;27;20507;-63
2022/06/20 14:04:11;;;;;;;3.83;0.80;;;;;;;;;;5112615;27;20043;-62
2022/06/20 14:06:50;;;;;;;2.97;0.80;;;;;;;;;;5104528;27;20043;-62
2022/06/20 14:09:19;;;;;;;1.88;0.70;;;;;;;;;;5106499;27;20111;-62
2022/06/20 14:11:50;;;;;;;2.90;0.80;;;;;;;;;;5107835;27;20122;-63
2022/06/20 14:14:19;;;;;;;3.05;0.80;;;;;;;;;;5107261;27;20083;-62
2022/06/20 14:16:47;;;;;;;3.58;0.88;;;;;;;;;;5116183;27;20035;-63
2022/06/20 14:19:18;;;;;;;3.92;1.10;;;;;;;;;;5128194;27;20120;-63
2022/06/20 14:21:49;;;;;;;3.83;1.00;;;;;;;;;;5126587;27;20436;-62
2022/06/20 14:24:19;;;;;;;2.15;0.80;;;;;;;;;;5127490;27;20125;-62
2022/06/20 14:26:46;;;;;;;3.17;0.90;;;;;;;;;;5126144;27;20035;-62
2022/06/20 14:29:24;;;;;;;2.70;0.90;;;;;;;;;;5128085;27;20046;-62
2022/06/20 14:32:09;;;;;;;4.75;0.88;;;;;;;;;;5113076;27;20095;-63
2022/06/20 14:35:20;;;;;;;2.45;0.88;;;;;;;;;;5106502;27;20128;-63
2022/06/20 14:37:32;;;;;;;2.72;0.82;;;;;;;;;;5104971;27;20047;-63
2022/06/20 14:40:00;;;;;;;2.13;0.70;;;;;;;;;;5106569;27;20051;-61
2022/06/20 14:42:39;;;;;;;3.20;1.20;;;;;;;;;;5104943;27;20093;-62
2022/06/20 14:45:13;;;;;;;3.38;0.88;;;;;;;;;;5097781;27;20764;-61
2022/06/20 14:47:52;;;;;;;2.20;0.82;;;;;;;;;;5105286;27;20115;-63
2022/06/20 14:50:22;;;;;;;2.08;0.70;;;;;;;;;;5105647;27;20075;-62
2022/06/20 14:53:00;;;;;;;2.58;0.90;;;;;;;;;;5104316;27;20032;-62
2022/06/20 14:55:40;;;;;;;3.30;1.02;;;;;;;;;;5103908;27;20551;-61
2022/06/20 14:58:25;;;;;;;1.98;0.80;;;;;;;;;;5104519;27;20049;-62
2022/06/20 15:00:55;;;;;;;3.40;0.90;;;;;;;;;;5112711;27;20040;-62
2022/06/20 15:03:31;;;;;;;4.60;0.90;;;;;;;;;;5105751;27;20075;-62
2022/06/20 15:06:10;;;;;;;2.85;0.90;;;;;;;;;;5104145;27;20075;-61
2022/06/20 15:08:42;;;;;;;3.53;0.80;;;;;;;;;;5103015;27;20042;-61
2022/06/20 15:11:31;;;;;;;4.28;0.93;;;;;;;;;;5103253;27;20071;-61
2022/06/20 15:14:16;;;;;;;2.38;0.90;;;;;;;;;;5121804;27;20062;-61
2022/06/20 15:16:49;;;;;;;6.72;0.90;;;;;;;;;;5123025;27;20040;-62
2022/06/20 15:19:19;;;;;;;2.55;0.88;;;;;;;;;;5124048;27;20072;-61
2022/06/20 15:21:53;;;;;;;2.90;1.00;;;;;;;;;;5123404;27;20549;-62
2022/06/20 15:24:28;;;;;;;3.25;0.90;;;;;;;;;;5124681;27;20039;-62
2022/06/20 15:27:04;;;;;;;2.50;0.90;;;;;;;;;;5103132;27;20036;-62